ALK110 VOBL-VOMM
Flight info
| Callsign | ALK110 |
|---|---|
| Flight time | 0h 28m |
| Altitude | 17000 |
| Route | BIA W116 MMV |
| Aircraft | A21N/M-SDE3FGHIRWY/LB1 |
Departure
| Time | 2026-04-24 11:41 |
|---|---|
| Airport | Kempegowda International Airport Bengaluru (VOBL) |
Arrival
| Time | 2026-04-24 12:09 |
|---|---|
| Airport | Chennai International Airport (VOMM) |
| Time | Latitude | Longitude | Altitude | Speed | Heading |
|---|---|---|---|---|---|
| 2026-04-24 11:06 | 13.20167 | 77.70465 | 2981 ft | 0 kts | 180° |
| 2026-04-24 11:27 | 13.20180 | 77.70465 | 2981 ft | 2 kts | 181° |
| 2026-04-24 11:28 | 13.20194 | 77.70469 | 2982 ft | 2 kts | 210° |
| 2026-04-24 11:28 | 13.20206 | 77.70478 | 2982 ft | 2 kts | 230° |
| 2026-04-24 11:28 | 13.20214 | 77.70492 | 2981 ft | 2 kts | 251° |
| 2026-04-24 11:28 | 13.20217 | 77.70503 | 2981 ft | 0 kts | 268° |
| 2026-04-24 11:29 | 13.20216 | 77.70511 | 2981 ft | 0 kts | 271° |
| 2026-04-24 11:33 | 13.20216 | 77.70509 | 2981 ft | 0 kts | 271° |
| 2026-04-24 11:33 | 13.20217 | 77.70502 | 2981 ft | 2 kts | 275° |
| 2026-04-24 11:33 | 13.20223 | 77.70472 | 2982 ft | 5 kts | 288° |
| 2026-04-24 11:33 | 13.20245 | 77.70423 | 2983 ft | 9 kts | 304° |
| 2026-04-24 11:34 | 13.20311 | 77.70395 | 2983 ft | 12 kts | 354° |
| 2026-04-24 11:34 | 13.20408 | 77.70393 | 2985 ft | 15 kts | 1° |
| 2026-04-24 11:34 | 13.20516 | 77.70378 | 2987 ft | 16 kts | 326° |
| 2026-04-24 11:34 | 13.20529 | 77.70284 | 2989 ft | 14 kts | 269° |
| 2026-04-24 11:35 | 13.20528 | 77.70168 | 2991 ft | 17 kts | 269° |
| 2026-04-24 11:35 | 13.20529 | 77.70022 | 2989 ft | 23 kts | 272° |
| 2026-04-24 11:35 | 13.20532 | 77.69843 | 2989 ft | 26 kts | 270° |
| 2026-04-24 11:35 | 13.20532 | 77.69649 | 2993 ft | 26 kts | 270° |
| 2026-04-24 11:36 | 13.20533 | 77.69466 | 2996 ft | 24 kts | 270° |
| 2026-04-24 11:36 | 13.20532 | 77.69305 | 3002 ft | 21 kts | 270° |
| 2026-04-24 11:36 | 13.20534 | 77.69160 | 3005 ft | 19 kts | 271° |
| 2026-04-24 11:36 | 13.20537 | 77.69027 | 3008 ft | 17 kts | 271° |
| 2026-04-24 11:37 | 13.20540 | 77.68909 | 3009 ft | 15 kts | 271° |
| 2026-04-24 11:37 | 13.20542 | 77.68800 | 3011 ft | 14 kts | 271° |
| 2026-04-24 11:37 | 13.20544 | 77.68699 | 3011 ft | 14 kts | 270° |
| 2026-04-24 11:37 | 13.20586 | 77.68621 | 3011 ft | 8 kts | 336° |
| 2026-04-24 11:38 | 13.20594 | 77.68619 | 3011 ft | 0 kts | 347° |
| 2026-04-24 11:38 | 13.20595 | 77.68619 | 3011 ft | 0 kts | 347° |
| 2026-04-24 11:39 | 13.20611 | 77.68615 | 3011 ft | 5 kts | 351° |
| 2026-04-24 11:39 | 13.20678 | 77.68616 | 3012 ft | 13 kts | 8° |
| 2026-04-24 11:39 | 13.20714 | 77.68656 | 3012 ft | 0 kts | 79° |
| 2026-04-24 11:39 | 13.20718 | 77.68730 | 3011 ft | 37 kts | 90° |
| 2026-04-24 11:40 | 13.20711 | 77.69218 | 3007 ft | 98 kts | 90° |
| 2026-04-24 11:40 | 13.20702 | 77.70122 | 2993 ft | 151 kts | 91° |
| 2026-04-24 11:40 | 13.20692 | 77.71349 | 3047 ft | 185 kts | 91° |
| 2026-04-24 11:40 | 13.20702 | 77.72691 | 3582 ft | 188 kts | 83° |
| 2026-04-24 11:41 | 13.21095 | 77.73918 | 4307 ft | 183 kts | 60° |
| 2026-04-24 11:41 | 13.21860 | 77.74946 | 4913 ft | 183 kts | 51° |
| 2026-04-24 11:41 | 13.22602 | 77.75996 | 5480 ft | 184 kts | 58° |
| 2026-04-24 11:41 | 13.23264 | 77.77137 | 6039 ft | 185 kts | 70° |
| 2026-04-24 11:42 | 13.23353 | 77.78465 | 6412 ft | 192 kts | 98° |
| 2026-04-24 11:42 | 13.23036 | 77.79906 | 6670 ft | 205 kts | 103° |
| 2026-04-24 11:42 | 13.22666 | 77.81381 | 6927 ft | 218 kts | 103° |
| 2026-04-24 11:42 | 13.22289 | 77.82969 | 7154 ft | 234 kts | 102° |
| 2026-04-24 11:43 | 13.21899 | 77.84721 | 7427 ft | 249 kts | 101° |
| 2026-04-24 11:43 | 13.21507 | 77.86569 | 7720 ft | 265 kts | 101° |
| 2026-04-24 11:43 | 13.21122 | 77.88438 | 8038 ft | 278 kts | 101° |
| 2026-04-24 11:43 | 13.20717 | 77.90434 | 8446 ft | 288 kts | 100° |
| 2026-04-24 11:44 | 13.20308 | 77.92470 | 9050 ft | 291 kts | 100° |
| 2026-04-24 11:44 | 13.19904 | 77.94491 | 9660 ft | 294 kts | 100° |
| 2026-04-24 11:44 | 13.19490 | 77.96570 | 10244 ft | 299 kts | 100° |
| 2026-04-24 11:44 | 13.19064 | 77.98716 | 10554 ft | 313 kts | 100° |
| 2026-04-24 11:45 | 13.18619 | 78.00957 | 10830 ft | 329 kts | 100° |
| 2026-04-24 11:45 | 13.18158 | 78.03278 | 11243 ft | 338 kts | 100° |
| 2026-04-24 11:45 | 13.17680 | 78.05673 | 11846 ft | 342 kts | 100° |
| 2026-04-24 11:45 | 13.17203 | 78.08062 | 12454 ft | 345 kts | 100° |
| 2026-04-24 11:46 | 13.16726 | 78.10457 | 13052 ft | 347 kts | 100° |
| 2026-04-24 11:46 | 13.16241 | 78.12888 | 13657 ft | 350 kts | 100° |
| 2026-04-24 11:46 | 13.15746 | 78.15368 | 14264 ft | 353 kts | 100° |
| 2026-04-24 11:46 | 13.15257 | 78.17822 | 14852 ft | 355 kts | 100° |
| 2026-04-24 11:47 | 13.14762 | 78.20306 | 15437 ft | 358 kts | 100° |
| 2026-04-24 11:47 | 13.14261 | 78.22816 | 16019 ft | 361 kts | 100° |
| 2026-04-24 11:47 | 13.13758 | 78.25341 | 16594 ft | 363 kts | 100° |
| 2026-04-24 11:47 | 13.13246 | 78.27904 | 17167 ft | 366 kts | 100° |
| 2026-04-24 11:48 | 13.12740 | 78.30436 | 17724 ft | 368 kts | 100° |
| 2026-04-24 11:48 | 13.12217 | 78.33056 | 18290 ft | 371 kts | 100° |
| 2026-04-24 11:48 | 13.11698 | 78.35649 | 18839 ft | 373 kts | 100° |
| 2026-04-24 11:48 | 13.11167 | 78.38303 | 19394 ft | 376 kts | 100° |
| 2026-04-24 11:49 | 13.10620 | 78.41038 | 19955 ft | 379 kts | 100° |
| 2026-04-24 11:49 | 13.10045 | 78.43911 | 20536 ft | 381 kts | 100° |
| 2026-04-24 11:49 | 13.09481 | 78.46725 | 21095 ft | 384 kts | 100° |
| 2026-04-24 11:49 | 13.08886 | 78.49694 | 21671 ft | 386 kts | 100° |
| 2026-04-24 11:50 | 13.08294 | 78.52644 | 22233 ft | 389 kts | 100° |
| 2026-04-24 11:50 | 13.07712 | 78.55544 | 22774 ft | 391 kts | 100° |
| 2026-04-24 11:50 | 13.07154 | 78.58323 | 23281 ft | 394 kts | 100° |
| 2026-04-24 11:50 | 13.06576 | 78.61197 | 23739 ft | 396 kts | 100° |
| 2026-04-24 11:51 | 13.05977 | 78.64174 | 23868 ft | 397 kts | 100° |
| 2026-04-24 11:51 | 13.05405 | 78.67012 | 23867 ft | 396 kts | 100° |
| 2026-04-24 11:51 | 13.04811 | 78.69965 | 23862 ft | 395 kts | 100° |
| 2026-04-24 11:51 | 13.04232 | 78.72838 | 23856 ft | 395 kts | 100° |
| 2026-04-24 11:52 | 13.03636 | 78.75793 | 23829 ft | 395 kts | 100° |
| 2026-04-24 11:52 | 13.03019 | 78.78856 | 23308 ft | 398 kts | 100° |
| 2026-04-24 11:52 | 13.02377 | 78.82053 | 22414 ft | 403 kts | 100° |
| 2026-04-24 11:52 | 13.01746 | 78.85188 | 21803 ft | 401 kts | 100° |
| 2026-04-24 11:53 | 13.01115 | 78.88309 | 21237 ft | 397 kts | 100° |
| 2026-04-24 11:53 | 13.00535 | 78.91179 | 20725 ft | 394 kts | 100° |
| 2026-04-24 11:53 | 12.99988 | 78.93887 | 20240 ft | 391 kts | 100° |
| 2026-04-24 11:53 | 12.99434 | 78.96623 | 19791 ft | 386 kts | 100° |
| 2026-04-24 11:54 | 12.98873 | 78.99394 | 19397 ft | 380 kts | 100° |
| 2026-04-24 11:54 | 12.98337 | 79.02042 | 18703 ft | 384 kts | 100° |
| 2026-04-24 11:54 | 12.97773 | 79.04829 | 17494 ft | 399 kts | 100° |
| 2026-04-24 11:54 | 12.97202 | 79.07650 | 16481 ft | 408 kts | 100° |
| 2026-04-24 11:55 | 12.96517 | 79.10538 | 15459 ft | 416 kts | 104° |
| 2026-04-24 11:55 | 12.95638 | 79.13620 | 14375 ft | 422 kts | 105° |
| 2026-04-24 11:55 | 12.94683 | 79.16868 | 13245 ft | 428 kts | 105° |
| 2026-04-24 11:55 | 12.93714 | 79.20145 | 12123 ft | 431 kts | 106° |
| 2026-04-24 11:56 | 12.92791 | 79.23264 | 11346 ft | 427 kts | 106° |
| 2026-04-24 11:56 | 12.91934 | 79.26156 | 10517 ft | 417 kts | 106° |
| 2026-04-24 11:56 | 12.91111 | 79.28938 | 9523 ft | 400 kts | 106° |
| 2026-04-24 11:56 | 12.90317 | 79.31622 | 8860 ft | 381 kts | 106° |
| 2026-04-24 11:57 | 12.89573 | 79.34139 | 8773 ft | 356 kts | 106° |
| 2026-04-24 11:57 | 12.88883 | 79.36467 | 8768 ft | 325 kts | 106° |
| 2026-04-24 11:57 | 12.88253 | 79.38595 | 8769 ft | 303 kts | 106° |
| 2026-04-24 11:57 | 12.87640 | 79.40669 | 8761 ft | 304 kts | 106° |
| 2026-04-24 11:58 | 12.87027 | 79.42743 | 8768 ft | 303 kts | 106° |
| 2026-04-24 11:58 | 12.86413 | 79.44817 | 8771 ft | 302 kts | 106° |
| 2026-04-24 11:58 | 12.85807 | 79.46864 | 8773 ft | 302 kts | 106° |
| 2026-04-24 11:58 | 12.85235 | 79.48933 | 8769 ft | 301 kts | 101° |
| 2026-04-24 11:59 | 12.85035 | 79.51056 | 8768 ft | 300 kts | 87° |
| 2026-04-24 11:59 | 12.85231 | 79.53193 | 8771 ft | 300 kts | 81° |
| 2026-04-24 11:59 | 12.85534 | 79.55293 | 8771 ft | 299 kts | 80° |
| 2026-04-24 11:59 | 12.85854 | 79.57415 | 8772 ft | 299 kts | 80° |
| 2026-04-24 12:00 | 12.86167 | 79.59523 | 8772 ft | 299 kts | 80° |
| 2026-04-24 12:00 | 12.86474 | 79.61634 | 8657 ft | 302 kts | 80° |
| 2026-04-24 12:00 | 12.86776 | 79.63745 | 8157 ft | 304 kts | 81° |
| 2026-04-24 12:00 | 12.87082 | 79.65905 | 7716 ft | 304 kts | 81° |
| 2026-04-24 12:01 | 12.87383 | 79.68048 | 7314 ft | 302 kts | 81° |
| 2026-04-24 12:01 | 12.87682 | 79.70180 | 6928 ft | 300 kts | 82° |
| 2026-04-24 12:01 | 12.87975 | 79.72278 | 6555 ft | 297 kts | 82° |
| 2026-04-24 12:01 | 12.88266 | 79.74366 | 6185 ft | 295 kts | 82° |
| 2026-04-24 12:02 | 12.88552 | 79.76417 | 5821 ft | 292 kts | 82° |
| 2026-04-24 12:02 | 12.88840 | 79.78485 | 5457 ft | 290 kts | 82° |
| 2026-04-24 12:02 | 12.89123 | 79.80517 | 5084 ft | 288 kts | 82° |
| 2026-04-24 12:02 | 12.89405 | 79.82552 | 4704 ft | 287 kts | 83° |
| 2026-04-24 12:03 | 12.89685 | 79.84570 | 4335 ft | 285 kts | 83° |
| 2026-04-24 12:03 | 12.89964 | 79.86576 | 3970 ft | 283 kts | 83° |
| 2026-04-24 12:03 | 12.90238 | 79.88557 | 3612 ft | 281 kts | 83° |
| 2026-04-24 12:03 | 12.90514 | 79.90546 | 3252 ft | 279 kts | 83° |
| 2026-04-24 12:04 | 12.90785 | 79.92502 | 2900 ft | 277 kts | 83° |
| 2026-04-24 12:04 | 12.91055 | 79.94448 | 2549 ft | 275 kts | 84° |
| 2026-04-24 12:04 | 12.91398 | 79.96353 | 2229 ft | 272 kts | 77° |
| 2026-04-24 12:04 | 12.91960 | 79.98160 | 2220 ft | 257 kts | 71° |
| 2026-04-24 12:05 | 12.92582 | 79.99826 | 2233 ft | 240 kts | 70° |
| 2026-04-24 12:05 | 12.93172 | 80.01368 | 2276 ft | 228 kts | 70° |
| 2026-04-24 12:05 | 12.93726 | 80.02820 | 2345 ft | 207 kts | 71° |
| 2026-04-24 12:05 | 12.94231 | 80.04134 | 2298 ft | 184 kts | 71° |
| 2026-04-24 12:06 | 12.94672 | 80.05286 | 2074 ft | 167 kts | 71° |
| 2026-04-24 12:06 | 12.95077 | 80.06359 | 1842 ft | 157 kts | 72° |
| 2026-04-24 12:06 | 12.95468 | 80.07411 | 1648 ft | 156 kts | 72° |
| 2026-04-24 12:06 | 12.95857 | 80.08456 | 1464 ft | 154 kts | 71° |
| 2026-04-24 12:07 | 12.96238 | 80.09475 | 1268 ft | 152 kts | 71° |
| 2026-04-24 12:07 | 12.96612 | 80.10474 | 1058 ft | 151 kts | 71° |
| 2026-04-24 12:07 | 12.96986 | 80.11473 | 851 ft | 150 kts | 71° |
| 2026-04-24 12:07 | 12.97359 | 80.12466 | 648 ft | 150 kts | 71° |
| 2026-04-24 12:08 | 12.97734 | 80.13466 | 450 ft | 149 kts | 71° |
| 2026-04-24 12:08 | 12.98102 | 80.14447 | 252 ft | 147 kts | 71° |
| 2026-04-24 12:08 | 12.98465 | 80.15416 | 59 ft | 144 kts | 71° |
| 2026-04-24 12:08 | 12.98762 | 80.16249 | 42 ft | 85 kts | 71° |
| 2026-04-24 12:09 | 12.98885 | 80.16557 | 45 ft | 28 kts | 70° |
| 2026-04-24 12:09 | 12.98970 | 80.16781 | 45 ft | 39 kts | 69° |
| 2026-04-24 12:09 | 12.99080 | 80.17082 | 45 ft | 49 kts | 70° |
| 2026-04-24 12:09 | 12.99222 | 80.17188 | 44 ft | 12 kts | 339° |
| 2026-04-24 12:10 | 12.99287 | 80.17192 | 43 ft | 9 kts | 360° |
| 2026-04-24 12:10 | 12.99330 | 80.17193 | 43 ft | 4 kts | 0° |
| 2026-04-24 12:10 | 12.99340 | 80.17193 | 42 ft | 1 kts | 0° |
| 2026-04-24 12:11 | 12.99383 | 80.17194 | 42 ft | 5 kts | 3° |
| 2026-04-24 12:11 | 12.99426 | 80.17197 | 42 ft | 7 kts | 5° |
| 2026-04-24 12:11 | 12.99480 | 80.17199 | 41 ft | 7 kts | 342° |
| 2026-04-24 12:11 | 12.99520 | 80.17165 | 41 ft | 8 kts | 304° |
| 2026-04-24 12:12 | 12.99550 | 80.17113 | 41 ft | 8 kts | 298° |
| 2026-04-24 12:12 | 12.99577 | 80.17055 | 41 ft | 9 kts | 295° |
| 2026-04-24 12:12 | 12.99579 | 80.17015 | 40 ft | 0 kts | 224° |
| 2026-04-24 12:12 | 12.99574 | 80.17009 | 41 ft | 2 kts | 227° |
| 2026-04-24 12:13 | 12.99560 | 80.16995 | 41 ft | 2 kts | 215° |
| 2026-04-24 12:13 | 12.99558 | 80.16994 | 41 ft | 0 kts | 212° |